sensor_id;sensor_type;location;lat;lon;timestamp;P1;durP1;ratioP1;P2;durP2;ratioP2
10896;SDS011;5501;51.176;6.470;2023-07-31T00:00:21;4.47;;;2.25;;
10896;SDS011;5501;51.176;6.470;2023-07-31T00:05:23;6.13;;;3.05;;
10896;SDS011;5501;51.176;6.470;2023-07-31T00:10:24;4.93;;;2.25;;
10896;SDS011;5501;51.176;6.470;2023-07-31T00:15:26;3.10;;;2.13;;
10896;SDS011;5501;51.176;6.470;2023-07-31T00:20:28;12.05;;;2.90;;
10896;SDS011;5501;51.176;6.470;2023-07-31T00:25:29;8.25;;;2.22;;
10896;SDS011;5501;51.176;6.470;2023-07-31T00:30:31;5.60;;;2.15;;
10896;SDS011;5501;51.176;6.470;2023-07-31T00:35:34;3.97;;;2.25;;
10896;SDS011;5501;51.176;6.470;2023-07-31T00:40:36;4.80;;;2.13;;
10896;SDS011;5501;51.176;6.470;2023-07-31T00:45:38;4.38;;;2.13;;
10896;SDS011;5501;51.176;6.470;2023-07-31T00:50:40;5.05;;;2.10;;
10896;SDS011;5501;51.176;6.470;2023-07-31T00:55:42;4.72;;;2.35;;
10896;SDS011;5501;51.176;6.470;2023-07-31T01:00:45;4.47;;;2.33;;
10896;SDS011;5501;51.176;6.470;2023-07-31T01:11:38;4.18;;;2.38;;
10896;SDS011;5501;51.176;6.470;2023-07-31T01:16:54;4.10;;;2.15;;
10896;SDS011;5501;51.176;6.470;2023-07-31T01:27:17;3.88;;;2.47;;
10896;SDS011;5501;51.176;6.470;2023-07-31T01:37:29;7.35;;;2.88;;
10896;SDS011;5501;51.176;6.470;2023-07-31T01:42:31;7.63;;;2.40;;
10896;SDS011;5501;51.176;6.470;2023-07-31T01:47:33;9.30;;;2.67;;
10896;SDS011;5501;51.176;6.470;2023-07-31T01:52:35;4.07;;;2.20;;
10896;SDS011;5501;51.176;6.470;2023-07-31T01:57:36;9.10;;;2.35;;
10896;SDS011;5501;51.176;6.470;2023-07-31T02:02:39;8.73;;;2.35;;
10896;SDS011;5501;51.176;6.470;2023-07-31T02:07:41;4.28;;;2.10;;
10896;SDS011;5501;51.176;6.470;2023-07-31T02:12:43;5.35;;;2.40;;
10896;SDS011;5501;51.176;6.470;2023-07-31T02:17:44;5.57;;;2.45;;
10896;SDS011;5501;51.176;6.470;2023-07-31T02:22:46;4.22;;;2.28;;
10896;SDS011;5501;51.176;6.470;2023-07-31T02:27:48;4.50;;;2.38;;
10896;SDS011;5501;51.176;6.470;2023-07-31T02:32:49;4.53;;;2.00;;
10896;SDS011;5501;51.176;6.470;2023-07-31T02:37:51;5.93;;;2.05;;
10896;SDS011;5501;51.176;6.470;2023-07-31T02:42:53;3.20;;;2.20;;
10896;SDS011;5501;51.176;6.470;2023-07-31T02:47:55;3.80;;;2.08;;
10896;SDS011;5501;51.176;6.470;2023-07-31T02:52:56;2.83;;;1.95;;
10896;SDS011;5501;51.176;6.470;2023-07-31T02:57:58;7.28;;;2.50;;
10896;SDS011;5501;51.176;6.470;2023-07-31T03:03:00;5.60;;;2.90;;
10896;SDS011;5501;51.176;6.470;2023-07-31T03:08:02;7.35;;;2.47;;
10896;SDS011;5501;51.176;6.470;2023-07-31T03:13:04;3.15;;;2.00;;
10896;SDS011;5501;51.176;6.470;2023-07-31T03:18:05;5.43;;;2.38;;
10896;SDS011;5501;51.176;6.470;2023-07-31T03:23:07;5.88;;;2.45;;
10896;SDS011;5501;51.176;6.470;2023-07-31T03:28:08;4.93;;;2.40;;
10896;SDS011;5501;51.176;6.470;2023-07-31T03:33:10;2.72;;;2.17;;
10896;SDS011;5501;51.176;6.470;2023-07-31T03:38:12;4.63;;;2.17;;
10896;SDS011;5501;51.176;6.470;2023-07-31T03:43:13;3.33;;;2.33;;
10896;SDS011;5501;51.176;6.470;2023-07-31T03:48:16;5.35;;;2.38;;
10896;SDS011;5501;51.176;6.470;2023-07-31T03:53:18;6.50;;;2.90;;
10896;SDS011;5501;51.176;6.470;2023-07-31T03:58:19;9.00;;;2.78;;
10896;SDS011;5501;51.176;6.470;2023-07-31T04:03:21;4.53;;;2.40;;
10896;SDS011;5501;51.176;6.470;2023-07-31T04:08:23;4.30;;;2.65;;
10896;SDS011;5501;51.176;6.470;2023-07-31T04:13:25;8.05;;;2.72;;
10896;SDS011;5501;51.176;6.470;2023-07-31T04:18:28;4.28;;;2.70;;
10896;SDS011;5501;51.176;6.470;2023-07-31T04:23:32;3.47;;;2.33;;
10896;SDS011;5501;51.176;6.470;2023-07-31T04:28:33;3.88;;;2.20;;
10896;SDS011;5501;51.176;6.470;2023-07-31T04:33:35;6.82;;;2.90;;
10896;SDS011;5501;51.176;6.470;2023-07-31T04:38:36;4.10;;;2.13;;
10896;SDS011;5501;51.176;6.470;2023-07-31T04:43:38;5.57;;;2.70;;
10896;SDS011;5501;51.176;6.470;2023-07-31T04:48:41;3.92;;;2.50;;
10896;SDS011;5501;51.176;6.470;2023-07-31T04:53:42;5.22;;;2.53;;
10896;SDS011;5501;51.176;6.470;2023-07-31T04:58:44;5.53;;;2.20;;
10896;SDS011;5501;51.176;6.470;2023-07-31T05:03:45;4.38;;;2.42;;
10896;SDS011;5501;51.176;6.470;2023-07-31T05:08:47;3.97;;;2.47;;
10896;SDS011;5501;51.176;6.470;2023-07-31T05:13:48;5.57;;;2.67;;
10896;SDS011;5501;51.176;6.470;2023-07-31T05:18:50;5.22;;;2.28;;
10896;SDS011;5501;51.176;6.470;2023-07-31T05:23:51;6.38;;;2.20;;
10896;SDS011;5501;51.176;6.470;2023-07-31T05:28:54;5.63;;;2.17;;
10896;SDS011;5501;51.176;6.470;2023-07-31T05:33:55;4.30;;;2.30;;
10896;SDS011;5501;51.176;6.470;2023-07-31T05:38:57;5.30;;;2.42;;
10896;SDS011;5501;51.176;6.470;2023-07-31T05:43:58;4.50;;;2.33;;
10896;SDS011;5501;51.176;6.470;2023-07-31T05:49:00;4.05;;;2.42;;
10896;SDS011;5501;51.176;6.470;2023-07-31T05:54:02;7.72;;;2.38;;
10896;SDS011;5501;51.176;6.470;2023-07-31T05:59:04;5.70;;;2.22;;
10896;SDS011;5501;51.176;6.470;2023-07-31T06:04:06;2.95;;;2.42;;
10896;SDS011;5501;51.176;6.470;2023-07-31T06:09:07;3.17;;;2.35;;
10896;SDS011;5501;51.176;6.470;2023-07-31T06:14:09;4.75;;;2.67;;
10896;SDS011;5501;51.176;6.470;2023-07-31T06:19:10;3.95;;;2.80;;
10896;SDS011;5501;51.176;6.470;2023-07-31T06:24:12;2.67;;;2.13;;
10896;SDS011;5501;51.176;6.470;2023-07-31T06:29:14;4.68;;;2.40;;
10896;SDS011;5501;51.176;6.470;2023-07-31T06:34:15;5.22;;;2.60;;
10896;SDS011;5501;51.176;6.470;2023-07-31T06:39:17;4.03;;;2.60;;
10896;SDS011;5501;51.176;6.470;2023-07-31T06:44:19;2.22;;;1.98;;
10896;SDS011;5501;51.176;6.470;2023-07-31T06:49:20;4.90;;;2.17;;
10896;SDS011;5501;51.176;6.470;2023-07-31T06:54:22;6.40;;;2.35;;
10896;SDS011;5501;51.176;6.470;2023-07-31T06:59:23;5.55;;;2.45;;
10896;SDS011;5501;51.176;6.470;2023-07-31T07:04:25;5.82;;;2.58;;
10896;SDS011;5501;51.176;6.470;2023-07-31T07:09:27;3.15;;;2.15;;
10896;SDS011;5501;51.176;6.470;2023-07-31T07:14:29;7.40;;;2.60;;
10896;SDS011;5501;51.176;6.470;2023-07-31T07:19:30;3.75;;;2.20;;
10896;SDS011;5501;51.176;6.470;2023-07-31T07:24:32;4.63;;;2.25;;
10896;SDS011;5501;51.176;6.470;2023-07-31T07:29:34;5.90;;;2.63;;
10896;SDS011;5501;51.176;6.470;2023-07-31T07:34:36;5.95;;;2.13;;
10896;SDS011;5501;51.176;6.470;2023-07-31T07:39:37;3.60;;;2.05;;
10896;SDS011;5501;51.176;6.470;2023-07-31T07:44:39;3.88;;;1.88;;
10896;SDS011;5501;51.176;6.470;2023-07-31T07:49:40;3.63;;;2.17;;
10896;SDS011;5501;51.176;6.470;2023-07-31T07:54:42;7.20;;;2.20;;
10896;SDS011;5501;51.176;6.470;2023-07-31T07:59:43;3.33;;;2.40;;
10896;SDS011;5501;51.176;6.470;2023-07-31T08:04:45;3.58;;;2.05;;
10896;SDS011;5501;51.176;6.470;2023-07-31T08:09:46;4.32;;;2.10;;
10896;SDS011;5501;51.176;6.470;2023-07-31T08:14:48;2.00;;;1.60;;
10896;SDS011;5501;51.176;6.470;2023-07-31T08:19:50;2.60;;;2.00;;
10896;SDS011;5501;51.176;6.470;2023-07-31T08:24:51;3.63;;;2.15;;
10896;SDS011;5501;51.176;6.470;2023-07-31T08:29:53;5.15;;;2.00;;
10896;SDS011;5501;51.176;6.470;2023-07-31T08:34:54;1.95;;;1.60;;
10896;SDS011;5501;51.176;6.470;2023-07-31T08:39:56;3.03;;;2.10;;
10896;SDS011;5501;51.176;6.470;2023-07-31T08:44:58;3.60;;;2.33;;
10896;SDS011;5501;51.176;6.470;2023-07-31T08:50:01;5.38;;;2.65;;
10896;SDS011;5501;51.176;6.470;2023-07-31T08:55:03;6.78;;;2.30;;
10896;SDS011;5501;51.176;6.470;2023-07-31T09:00:08;4.68;;;2.40;;
10896;SDS011;5501;51.176;6.470;2023-07-31T09:05:11;3.58;;;1.92;;
10896;SDS011;5501;51.176;6.470;2023-07-31T09:10:14;3.50;;;2.53;;
10896;SDS011;5501;51.176;6.470;2023-07-31T09:15:15;3.20;;;2.55;;
10896;SDS011;5501;51.176;6.470;2023-07-31T09:20:32;4.70;;;2.25;;
10896;SDS011;5501;51.176;6.470;2023-07-31T09:25:35;3.58;;;2.30;;
10896;SDS011;5501;51.176;6.470;2023-07-31T09:30:43;4.05;;;1.98;;
10896;SDS011;5501;51.176;6.470;2023-07-31T09:35:49;2.83;;;1.83;;
10896;SDS011;5501;51.176;6.470;2023-07-31T09:40:51;4.55;;;2.42;;
10896;SDS011;5501;51.176;6.470;2023-07-31T09:45:55;3.05;;;2.10;;
10896;SDS011;5501;51.176;6.470;2023-07-31T09:51:00;5.65;;;2.15;;
10896;SDS011;5501;51.176;6.470;2023-07-31T09:56:05;5.18;;;2.67;;
10896;SDS011;5501;51.176;6.470;2023-07-31T10:01:07;2.83;;;2.08;;
10896;SDS011;5501;51.176;6.470;2023-07-31T10:06:09;4.15;;;2.63;;
10896;SDS011;5501;51.176;6.470;2023-07-31T10:11:11;4.70;;;2.63;;
10896;SDS011;5501;51.176;6.470;2023-07-31T10:16:15;4.10;;;2.30;;
10896;SDS011;5501;51.176;6.470;2023-07-31T10:21:18;3.42;;;2.53;;
10896;SDS011;5501;51.176;6.470;2023-07-31T10:26:19;4.50;;;2.40;;
10896;SDS011;5501;51.176;6.470;2023-07-31T10:31:23;8.02;;;2.78;;
10896;SDS011;5501;51.176;6.470;2023-07-31T10:36:25;3.95;;;2.28;;
10896;SDS011;5501;51.176;6.470;2023-07-31T10:41:28;3.58;;;2.00;;
10896;SDS011;5501;51.176;6.470;2023-07-31T10:46:32;6.68;;;2.28;;
10896;SDS011;5501;51.176;6.470;2023-07-31T10:51:34;3.53;;;1.83;;
10896;SDS011;5501;51.176;6.470;2023-07-31T10:56:37;1.50;;;1.40;;
10896;SDS011;5501;51.176;6.470;2023-07-31T11:01:53;2.95;;;2.03;;
10896;SDS011;5501;51.176;6.470;2023-07-31T11:07:01;1.70;;;1.45;;
10896;SDS011;5501;51.176;6.470;2023-07-31T11:12:04;1.58;;;1.23;;
10896;SDS011;5501;51.176;6.470;2023-07-31T11:17:06;1.23;;;1.10;;
10896;SDS011;5501;51.176;6.470;2023-07-31T11:22:08;1.40;;;1.30;;
10896;SDS011;5501;51.176;6.470;2023-07-31T11:27:10;2.08;;;1.48;;
10896;SDS011;5501;51.176;6.470;2023-07-31T11:32:17;3.25;;;1.65;;
10896;SDS011;5501;51.176;6.470;2023-07-31T11:37:19;1.83;;;1.08;;
10896;SDS011;5501;51.176;6.470;2023-07-31T11:42:21;1.50;;;1.23;;
10896;SDS011;5501;51.176;6.470;2023-07-31T11:47:23;1.38;;;1.20;;
10896;SDS011;5501;51.176;6.470;2023-07-31T11:52:27;2.90;;;1.20;;
10896;SDS011;5501;51.176;6.470;2023-07-31T11:57:33;2.40;;;1.25;;
10896;SDS011;5501;51.176;6.470;2023-07-31T12:02:34;1.33;;;1.23;;
10896;SDS011;5501;51.176;6.470;2023-07-31T12:07:50;2.95;;;1.27;;
10896;SDS011;5501;51.176;6.470;2023-07-31T12:18:05;5.60;;;1.60;;
10896;SDS011;5501;51.176;6.470;2023-07-31T12:23:28;1.85;;;1.65;;
10896;SDS011;5501;51.176;6.470;2023-07-31T12:28:41;2.47;;;1.50;;
10896;SDS011;5501;51.176;6.470;2023-07-31T12:33:44;1.58;;;1.35;;
10896;SDS011;5501;51.176;6.470;2023-07-31T12:38:47;1.83;;;1.58;;
10896;SDS011;5501;51.176;6.470;2023-07-31T12:43:49;2.17;;;1.83;;
10896;SDS011;5501;51.176;6.470;2023-07-31T12:48:51;2.13;;;1.92;;
10896;SDS011;5501;51.176;6.470;2023-07-31T12:53:52;2.38;;;1.60;;
10896;SDS011;5501;51.176;6.470;2023-07-31T12:58:54;3.80;;;1.52;;
10896;SDS011;5501;51.176;6.470;2023-07-31T13:03:55;2.47;;;1.73;;
10896;SDS011;5501;51.176;6.470;2023-07-31T13:08:57;3.05;;;2.33;;
10896;SDS011;5501;51.176;6.470;2023-07-31T13:13:59;3.40;;;2.15;;
10896;SDS011;5501;51.176;6.470;2023-07-31T13:19:01;3.30;;;1.88;;
10896;SDS011;5501;51.176;6.470;2023-07-31T13:24:02;2.35;;;1.83;;
10896;SDS011;5501;51.176;6.470;2023-07-31T13:29:05;5.28;;;2.40;;
10896;SDS011;5501;51.176;6.470;2023-07-31T13:34:07;3.35;;;1.70;;
10896;SDS011;5501;51.176;6.470;2023-07-31T13:39:08;1.60;;;1.50;;
10896;SDS011;5501;51.176;6.470;2023-07-31T13:44:10;2.70;;;1.67;;
10896;SDS011;5501;51.176;6.470;2023-07-31T13:49:11;2.78;;;1.70;;
10896;SDS011;5501;51.176;6.470;2023-07-31T13:54:13;3.80;;;1.63;;
10896;SDS011;5501;51.176;6.470;2023-07-31T13:59:16;4.18;;;1.63;;
10896;SDS011;5501;51.176;6.470;2023-07-31T14:04:18;2.13;;;1.70;;
10896;SDS011;5501;51.176;6.470;2023-07-31T14:09:19;3.60;;;1.63;;
10896;SDS011;5501;51.176;6.470;2023-07-31T14:14:21;2.85;;;2.13;;
10896;SDS011;5501;51.176;6.470;2023-07-31T14:19:22;2.47;;;1.67;;
10896;SDS011;5501;51.176;6.470;2023-07-31T14:24:25;2.45;;;2.03;;
10896;SDS011;5501;51.176;6.470;2023-07-31T14:29:26;2.25;;;1.63;;
10896;SDS011;5501;51.176;6.470;2023-07-31T14:34:28;2.35;;;1.75;;
10896;SDS011;5501;51.176;6.470;2023-07-31T14:39:30;3.88;;;2.00;;
10896;SDS011;5501;51.176;6.470;2023-07-31T14:44:31;2.58;;;1.95;;
10896;SDS011;5501;51.176;6.470;2023-07-31T14:49:33;7.32;;;2.50;;
10896;SDS011;5501;51.176;6.470;2023-07-31T14:54:34;2.75;;;1.85;;
10896;SDS011;5501;51.176;6.470;2023-07-31T14:59:37;2.97;;;2.15;;
10896;SDS011;5501;51.176;6.470;2023-07-31T15:04:39;3.63;;;2.22;;
10896;SDS011;5501;51.176;6.470;2023-07-31T15:09:40;3.40;;;2.53;;
10896;SDS011;5501;51.176;6.470;2023-07-31T15:14:42;3.33;;;2.20;;
10896;SDS011;5501;51.176;6.470;2023-07-31T15:19:43;2.65;;;2.08;;
10896;SDS011;5501;51.176;6.470;2023-07-31T15:24:45;3.00;;;1.85;;
10896;SDS011;5501;51.176;6.470;2023-07-31T15:29:46;3.33;;;2.10;;
10896;SDS011;5501;51.176;6.470;2023-07-31T15:34:49;3.90;;;2.03;;
10896;SDS011;5501;51.176;6.470;2023-07-31T15:39:51;3.08;;;2.03;;
10896;SDS011;5501;51.176;6.470;2023-07-31T15:44:52;5.03;;;2.20;;
10896;SDS011;5501;51.176;6.470;2023-07-31T15:49:54;2.97;;;2.30;;
10896;SDS011;5501;51.176;6.470;2023-07-31T15:54:55;5.10;;;2.13;;
10896;SDS011;5501;51.176;6.470;2023-07-31T15:59:57;3.85;;;2.05;;
10896;SDS011;5501;51.176;6.470;2023-07-31T16:04:58;3.47;;;2.17;;
10896;SDS011;5501;51.176;6.470;2023-07-31T16:10:00;5.85;;;1.90;;
10896;SDS011;5501;51.176;6.470;2023-07-31T16:15:02;4.47;;;2.00;;
10896;SDS011;5501;51.176;6.470;2023-07-31T16:20:04;1.73;;;1.63;;
10896;SDS011;5501;51.176;6.470;2023-07-31T16:25:06;1.83;;;1.63;;
10896;SDS011;5501;51.176;6.470;2023-07-31T16:30:08;2.40;;;1.90;;
10896;SDS011;5501;51.176;6.470;2023-07-31T16:35:10;3.33;;;1.85;;
10896;SDS011;5501;51.176;6.470;2023-07-31T16:40:11;3.45;;;1.63;;
10896;SDS011;5501;51.176;6.470;2023-07-31T16:45:14;1.55;;;1.35;;
10896;SDS011;5501;51.176;6.470;2023-07-31T16:50:16;1.48;;;1.38;;
10896;SDS011;5501;51.176;6.470;2023-07-31T16:55:18;2.58;;;1.42;;
10896;SDS011;5501;51.176;6.470;2023-07-31T17:00:20;2.15;;;1.67;;
10896;SDS011;5501;51.176;6.470;2023-07-31T17:05:22;1.80;;;1.45;;
10896;SDS011;5501;51.176;6.470;2023-07-31T17:10:24;1.40;;;1.30;;
10896;SDS011;5501;51.176;6.470;2023-07-31T17:15:26;2.13;;;1.77;;
10896;SDS011;5501;51.176;6.470;2023-07-31T17:20:28;3.75;;;1.55;;
10896;SDS011;5501;51.176;6.470;2023-07-31T17:25:33;1.85;;;1.35;;
10896;SDS011;5501;51.176;6.470;2023-07-31T17:30:34;1.98;;;1.52;;
10896;SDS011;5501;51.176;6.470;2023-07-31T17:35:36;2.15;;;1.70;;
10896;SDS011;5501;51.176;6.470;2023-07-31T17:40:38;2.22;;;1.35;;
10896;SDS011;5501;51.176;6.470;2023-07-31T17:45:40;3.20;;;1.48;;
10896;SDS011;5501;51.176;6.470;2023-07-31T17:50:42;2.88;;;1.63;;
10896;SDS011;5501;51.176;6.470;2023-07-31T17:55:43;2.95;;;1.42;;
10896;SDS011;5501;51.176;6.470;2023-07-31T18:00:45;2.22;;;1.48;;
10896;SDS011;5501;51.176;6.470;2023-07-31T18:05:46;1.98;;;1.40;;
10896;SDS011;5501;51.176;6.470;2023-07-31T18:10:48;1.45;;;1.25;;
10896;SDS011;5501;51.176;6.470;2023-07-31T18:15:50;3.00;;;1.38;;
10896;SDS011;5501;51.176;6.470;2023-07-31T18:20:51;2.05;;;1.35;;
10896;SDS011;5501;51.176;6.470;2023-07-31T18:25:53;1.73;;;1.20;;
10896;SDS011;5501;51.176;6.470;2023-07-31T18:30:57;0.80;;;0.80;;
10896;SDS011;5501;51.176;6.470;2023-07-31T18:36:01;1.58;;;1.08;;
10896;SDS011;5501;51.176;6.470;2023-07-31T18:41:05;1.30;;;0.77;;
10896;SDS011;5501;51.176;6.470;2023-07-31T18:46:07;0.95;;;0.80;;
10896;SDS011;5501;51.176;6.470;2023-07-31T18:51:13;2.80;;;1.20;;
10896;SDS011;5501;51.176;6.470;2023-07-31T18:56:14;0.98;;;0.75;;
10896;SDS011;5501;51.176;6.470;2023-07-31T19:01:16;3.00;;;1.85;;
10896;SDS011;5501;51.176;6.470;2023-07-31T19:06:17;1.10;;;0.93;;
10896;SDS011;5501;51.176;6.470;2023-07-31T19:11:19;1.00;;;0.95;;
10896;SDS011;5501;51.176;6.470;2023-07-31T19:16:33;0.73;;;0.73;;
10896;SDS011;5501;51.176;6.470;2023-07-31T19:21:35;1.33;;;1.00;;
10896;SDS011;5501;51.176;6.470;2023-07-31T19:26:36;0.75;;;0.75;;
10896;SDS011;5501;51.176;6.470;2023-07-31T19:31:38;1.35;;;0.80;;
10896;SDS011;5501;51.176;6.470;2023-07-31T19:36:40;1.45;;;0.95;;
10896;SDS011;5501;51.176;6.470;2023-07-31T19:41:43;1.13;;;0.93;;
10896;SDS011;5501;51.176;6.470;2023-07-31T19:46:45;0.80;;;0.75;;
10896;SDS011;5501;51.176;6.470;2023-07-31T19:51:46;0.77;;;0.77;;
10896;SDS011;5501;51.176;6.470;2023-07-31T19:56:48;0.80;;;0.70;;
10896;SDS011;5501;51.176;6.470;2023-07-31T20:01:50;1.35;;;0.80;;
10896;SDS011;5501;51.176;6.470;2023-07-31T20:06:52;0.82;;;0.70;;
10896;SDS011;5501;51.176;6.470;2023-07-31T20:11:53;4.20;;;0.93;;
10896;SDS011;5501;51.176;6.470;2023-07-31T20:16:56;1.13;;;0.88;;
10896;SDS011;5501;51.176;6.470;2023-07-31T20:21:57;1.05;;;0.95;;
10896;SDS011;5501;51.176;6.470;2023-07-31T20:26:59;1.23;;;0.95;;
10896;SDS011;5501;51.176;6.470;2023-07-31T20:32:01;1.13;;;0.90;;
10896;SDS011;5501;51.176;6.470;2023-07-31T20:37:02;1.65;;;0.93;;
10896;SDS011;5501;51.176;6.470;2023-07-31T20:42:04;0.60;;;0.57;;
10896;SDS011;5501;51.176;6.470;2023-07-31T20:47:06;1.80;;;0.70;;
10896;SDS011;5501;51.176;6.470;2023-07-31T20:52:07;0.45;;;0.45;;
10896;SDS011;5501;51.176;6.470;2023-07-31T20:57:09;0.45;;;0.45;;
10896;SDS011;5501;51.176;6.470;2023-07-31T21:02:11;1.35;;;0.60;;
10896;SDS011;5501;51.176;6.470;2023-07-31T21:07:12;0.75;;;0.70;;
10896;SDS011;5501;51.176;6.470;2023-07-31T21:12:16;0.60;;;0.60;;
10896;SDS011;5501;51.176;6.470;2023-07-31T21:17:17;1.55;;;0.85;;
10896;SDS011;5501;51.176;6.470;2023-07-31T21:22:19;1.67;;;1.10;;
10896;SDS011;5501;51.176;6.470;2023-07-31T21:27:20;0.82;;;0.70;;
10896;SDS011;5501;51.176;6.470;2023-07-31T21:32:24;1.48;;;0.98;;
10896;SDS011;5501;51.176;6.470;2023-07-31T21:37:26;0.80;;;0.63;;
10896;SDS011;5501;51.176;6.470;2023-07-31T21:42:28;0.60;;;0.60;;
10896;SDS011;5501;51.176;6.470;2023-07-31T21:47:29;0.63;;;0.55;;
10896;SDS011;5501;51.176;6.470;2023-07-31T21:52:31;0.73;;;0.60;;
10896;SDS011;5501;51.176;6.470;2023-07-31T21:57:32;0.70;;;0.70;;
10896;SDS011;5501;51.176;6.470;2023-07-31T22:02:34;2.53;;;0.60;;
10896;SDS011;5501;51.176;6.470;2023-07-31T22:07:37;0.75;;;0.73;;
10896;SDS011;5501;51.176;6.470;2023-07-31T22:12:39;0.57;;;0.57;;
10896;SDS011;5501;51.176;6.470;2023-07-31T22:17:40;0.93;;;0.73;;
10896;SDS011;5501;51.176;6.470;2023-07-31T22:22:42;0.28;;;0.28;;
10896;SDS011;5501;51.176;6.470;2023-07-31T22:27:44;0.45;;;0.30;;
10896;SDS011;5501;51.176;6.470;2023-07-31T22:32:45;0.20;;;0.20;;
10896;SDS011;5501;51.176;6.470;2023-07-31T22:37:47;0.50;;;0.50;;
10896;SDS011;5501;51.176;6.470;2023-07-31T22:42:48;0.40;;;0.40;;
10896;SDS011;5501;51.176;6.470;2023-07-31T22:47:50;0.38;;;0.38;;
10896;SDS011;5501;51.176;6.470;2023-07-31T22:52:51;0.30;;;0.30;;
10896;SDS011;5501;51.176;6.470;2023-07-31T22:57:55;0.35;;;0.30;;
10896;SDS011;5501;51.176;6.470;2023-07-31T23:02:57;0.30;;;0.30;;
10896;SDS011;5501;51.176;6.470;2023-07-31T23:07:58;0.32;;;0.32;;
10896;SDS011;5501;51.176;6.470;2023-07-31T23:13:00;0.30;;;0.30;;
10896;SDS011;5501;51.176;6.470;2023-07-31T23:18:01;0.50;;;0.50;;
10896;SDS011;5501;51.176;6.470;2023-07-31T23:23:03;0.20;;;0.20;;
10896;SDS011;5501;51.176;6.470;2023-07-31T23:28:05;0.35;;;0.35;;
10896;SDS011;5501;51.176;6.470;2023-07-31T23:33:08;0.20;;;0.20;;
10896;SDS011;5501;51.176;6.470;2023-07-31T23:38:10;2.65;;;0.40;;
10896;SDS011;5501;51.176;6.470;2023-07-31T23:43:12;0.40;;;0.40;;
10896;SDS011;5501;51.176;6.470;2023-07-31T23:48:13;0.35;;;0.20;;
10896;SDS011;5501;51.176;6.470;2023-07-31T23:53:15;0.10;;;0.10;;
10896;SDS011;5501;51.176;6.470;2023-07-31T23:58:17;0.20;;;0.20;;
